Terminal Aerodrome Forecast
Issued by NWS

Home | Current Version | Previous Version | Text Only | Print | Product List | Glossary On
Versions: 1 2 3 4 5 6 7 8 9 10 11 12 13 14 15 16 17 18 19 20 21 22
000
FTUS45 KSLC 061236 AAD
TAFPVU
TAF AMD
KPVU 061236Z 0613/0712 24020G35KT P6SM -TSRA SCT030 BKN050CB OVC100
     FM061330 14008KT P6SM BKN100 BKN200
     FM061900 13014G22KT P6SM BKN090 BKN200
     FM070100 13010KT P6SM BKN200
      AMD LTD TO CLD VIS AND WIND=

USA.gov is the U.S. government's official web portal to all federal, state and local government web resources and services.